F/V Loktudi — FGQJ — position and weather

sailwx.info

Track history (hours):
 
Tides and Currents Weather Stations Pressure Air Temp Water Temp Dewpoint Dewpoint Depression Visibility Wind Speed Wind Dir Waves Ship Positions

F/V Loktudi

Last reported at 2018-Jun-19 10:30 UTC. Time now 2018-Jun-19 10:36 UTC.
Position N 47°11' W 003°52'.

Length 16 m; draft 3 m.

Type: Fishing. MMSI: 228376000.

Date/timePositionNaut miles runAvg speedWind from/ knotsBaromVisibWave heightAir tempDewpointWater temp
2018-Jun-19 10:30N 47°11' W 003°52'2 2.9
2018-Jun-19 09:59N 47°12' W 003°54'2 3.3
2018-Jun-19 09:28N 47°12' W 003°56'2 3.4
2018-Jun-19 09:00N 47°12' W 003°59'2 3.4
2018-Jun-19 08:28N 47°13' W 004°01'2 3.0
2018-Jun-19 07:57N 47°15' W 004°00'2 3.4
2018-Jun-19 07:18N 47°17' W 003°59'1 3.3
2018-Jun-19 07:00N 47°18' W 003°59'2 3.3
2018-Jun-19 06:30N 47°19' W 003°58'2 3.3
2018-Jun-19 05:54N 47°21' W 003°57'1 3.3
2018-Jun-19 05:31N 47°22' W 003°57'2 3.3
2018-Jun-19 05:00N 47°24' W 003°56'4 7.1
2018-Jun-19 04:30N 47°28' W 003°55'4 7.8
2018-Jun-19 04:00N 47°31' W 003°55'4 7.8
2018-Jun-19 03:30N 47°35' W 003°54'4 8.1
2018-Jun-19 03:01N 47°39' W 003°54'4 8.2
2018-Jun-19 02:31N 47°43' W 003°54'4 8.1
2018-Jun-19 02:01N 47°47' W 003°55'2 1.0
2018-Jun-19 00:06N 47°49' W 003°56'3 8.0
2018-Jun-18 23:43N 47°46' W 003°55'19 5.1
2018-Jun-18 19:55N 47°27' W 003°53'2 2.8
2018-Jun-18 19:21N 47°25' W 003°53'13 2.0
2018-Jun-18 12:39N 47°12' W 003°53'2 3.8
2018-Jun-18 12:11N 47°13' W 003°52'2 2.7
2018-Jun-18 11:16N 47°14' W 003°56'1 3.2
2018-Jun-18 10:58N 47°14' W 003°57'4 2.5
2018-Jun-18 09:10N 47°14' W 003°51'1 3.1
2018-Jun-18 09:00N 47°13' W 003°51'2 3.2
2018-Jun-18 08:29N 47°14' W 003°54'2 3.5
2018-Jun-18 08:00N 47°14' W 003°56'2 3.3
2018-Jun-18 07:30N 47°16' W 003°57'2 3.5
2018-Jun-18 06:54N 47°18' W 003°58'1 3.1
2018-Jun-18 06:28N 47°19' W 003°58'2 3.2
2018-Jun-18 05:59N 47°20' W 003°57'2 3.3
2018-Jun-18 05:30N 47°22' W 003°57'2 3.3
2018-Jun-18 04:58N 47°24' W 003°56'3 6.1
2018-Jun-18 04:28N 47°27' W 003°56'4 7.9
2018-Jun-18 04:00N 47°30' W 003°55'4 7.8
2018-Jun-18 03:30N 47°34' W 003°55'4 7.8
2018-Jun-18 02:59N 47°38' W 003°54'4 8.0
2018-Jun-18 02:26N 47°43' W 003°55'4 8.2
2018-Jun-18 02:00N 47°46' W 003°55'4 8.3
2018-Jun-18 01:30N 47°50' W 003°56'38 2.4
2018-Jun-17 09:11N 47°12' W 003°57'11 4.1
2018-Jun-17 06:27N 47°21' W 004°06'5 8.7
2018-Jun-17 05:55N 47°26' W 004°07'5 8.5
2018-Jun-17 05:23N 47°30' W 004°07'14 8.2
2018-Jun-17 03:37N 47°45' W 004°08'8 0.3
2018-Jun-16 03:10N 47°50' W 003°59'2 8.6
2018-Jun-16 02:53N 47°51' W 003°56'5 2.7
2018-Jun-16 01:06N 47°46' W 003°55'21 0.9
2018-Jun-15 01:31N 47°28' W 004°11'0 3.6
2018-Jun-15 01:30N 47°28' W 004°11'7 0.4
2018-Jun-14 06:30N 47°33' W 004°16'3 3.3
2018-Jun-14 05:39N 47°36' W 004°19'1 3.6
2018-Jun-14 05:17N 47°37' W 004°20'3 3.5
2018-Jun-14 04:20N 47°39' W 004°23'11 5.7
2018-Jun-14 02:24N 47°46' W 004°11'3 7.1
2018-Jun-14 02:00N 47°48' W 004°08'5 0.2
2018-Jun-13 03:33N 47°49' W 004°00'1 8.1
2018-Jun-13 03:29N 47°50' W 003°60'3 1.8
2018-Jun-13 01:59N 47°50' W 003°56'4 8.2
2018-Jun-13 01:29N 47°46' W 003°55'15 7.0
2018-Jun-12 23:23N 47°32' W 004°01'3 5.7
2018-Jun-12 22:54N 47°30' W 004°04'17 0.9
2018-Jun-12 04:08N 47°40' W 004°24'0 3.5
2018-Jun-12 04:01N 47°40' W 004°24'11 7.6
2018-Jun-12 02:33N 47°44' W 004°08'1 8.2
2018-Jun-12 02:24N 47°44' W 004°06'4 8.0
2018-Jun-12 01:52N 47°46' W 004°01'4 8.4
2018-Jun-12 01:20N 47°50' W 003°57'13 4.0
2018-Jun-11 22:05N 47°37' W 003°52'3 7.2
2018-Jun-11 21:38N 47°34' W 003°52'1 7.3
2018-Jun-11 21:30N 47°33' W 003°52'2 3.2
2018-Jun-11 21:00N 47°32' W 003°51'2 3.2
2018-Jun-11 20:30N 47°32' W 003°54'2 3.2
2018-Jun-11 20:00N 47°33' W 003°56'6 1.1
2018-Jun-11 14:13N 47°27' W 004°01'1 3.5
2018-Jun-11 13:58N 47°28' W 004°01'7 1.5
2018-Jun-11 09:03N 47°29' W 003°51'0 3.3
2018-Jun-11 08:57N 47°29' W 003°50'1 3.0
2018-Jun-11 08:30N 47°30' W 003°50'2 3.8
2018-Jun-11 07:58N 47°32' W 003°53'1 2.3
2018-Jun-11 07:29N 47°32' W 003°54'9 2.9
2018-Jun-11 04:33N 47°37' W 004°05'14 2.3
2018-Jun-10 22:33N 47°50' W 004°11'0 0.0
2018-Jun-10 06:33N 47°50' W 004°11'0 0.0
2018-Jun-10 05:33N 47°50' W 004°11'0 0.0
2018-Jun-10 02:33N 47°50' W 004°11'0 0.0
2018-Jun-09 23:33N 47°50' W 004°11'0 0.0
2018-Jun-09 20:33N 47°50' W 004°11'  
Track history (hours):
 
Tides and Currents Weather Stations Pressure Air Temp Water Temp Dewpoint Dewpoint Depression Visibility Wind Speed Wind Dir Waves Ship Positions

F/V Loktudi

Last reported at 2018-Jun-19 10:30 UTC. Time now 2018-Jun-19 10:36 UTC.
Position N 47°11' W 003°52'.

Length 16 m; draft 3 m.

Type: Fishing. MMSI: 228376000.

Date/timePositionNaut miles runAvg speedWind from/ knotsBaromVisibWave heightAir tempDewpointWater temp
2018-Jun-19 10:30N 47°11' W 003°52'2 2.9
2018-Jun-19 09:59N 47°12' W 003°54'2 3.3
2018-Jun-19 09:28N 47°12' W 003°56'2 3.4
2018-Jun-19 09:00N 47°12' W 003°59'2 3.4
2018-Jun-19 08:28N 47°13' W 004°01'2 3.0
2018-Jun-19 07:57N 47°15' W 004°00'2 3.4
2018-Jun-19 07:18N 47°17' W 003°59'1 3.3
2018-Jun-19 07:00N 47°18' W 003°59'2 3.3
2018-Jun-19 06:30N 47°19' W 003°58'2 3.3
2018-Jun-19 05:54N 47°21' W 003°57'1 3.3
2018-Jun-19 05:31N 47°22' W 003°57'2 3.3
2018-Jun-19 05:00N 47°24' W 003°56'4 7.1
2018-Jun-19 04:30N 47°28' W 003°55'4 7.8
2018-Jun-19 04:00N 47°31' W 003°55'4 7.8
2018-Jun-19 03:30N 47°35' W 003°54'4 8.1
2018-Jun-19 03:01N 47°39' W 003°54'4 8.2
2018-Jun-19 02:31N 47°43' W 003°54'4 8.1
2018-Jun-19 02:01N 47°47' W 003°55'2 1.0
2018-Jun-19 00:06N 47°49' W 003°56'3 8.0
2018-Jun-18 23:43N 47°46' W 003°55'19 5.1
2018-Jun-18 19:55N 47°27' W 003°53'2 2.8
2018-Jun-18 19:21N 47°25' W 003°53'13 2.0
2018-Jun-18 12:39N 47°12' W 003°53'2 3.8
2018-Jun-18 12:11N 47°13' W 003°52'2 2.7
2018-Jun-18 11:16N 47°14' W 003°56'1 3.2
2018-Jun-18 10:58N 47°14' W 003°57'4 2.5
2018-Jun-18 09:10N 47°14' W 003°51'1 3.1
2018-Jun-18 09:00N 47°13' W 003°51'2 3.2
2018-Jun-18 08:29N 47°14' W 003°54'2 3.5
2018-Jun-18 08:00N 47°14' W 003°56'2 3.3
2018-Jun-18 07:30N 47°16' W 003°57'2 3.5
2018-Jun-18 06:54N 47°18' W 003°58'1 3.1
2018-Jun-18 06:28N 47°19' W 003°58'2 3.2
2018-Jun-18 05:59N 47°20' W 003°57'2 3.3
2018-Jun-18 05:30N 47°22' W 003°57'2 3.3
2018-Jun-18 04:58N 47°24' W 003°56'3 6.1
2018-Jun-18 04:28N 47°27' W 003°56'4 7.9
2018-Jun-18 04:00N 47°30' W 003°55'4 7.8
2018-Jun-18 03:30N 47°34' W 003°55'4 7.8
2018-Jun-18 02:59N 47°38' W 003°54'4 8.0
2018-Jun-18 02:26N 47°43' W 003°55'4 8.2
2018-Jun-18 02:00N 47°46' W 003°55'4 8.3
2018-Jun-18 01:30N 47°50' W 003°56'38 2.4
2018-Jun-17 09:11N 47°12' W 003°57'11 4.1
2018-Jun-17 06:27N 47°21' W 004°06'5 8.7
2018-Jun-17 05:55N 47°26' W 004°07'5 8.5
2018-Jun-17 05:23N 47°30' W 004°07'14 8.2
2018-Jun-17 03:37N 47°45' W 004°08'8 0.3
2018-Jun-16 03:10N 47°50' W 003°59'2 8.6
2018-Jun-16 02:53N 47°51' W 003°56'5 2.7
2018-Jun-16 01:06N 47°46' W 003°55'21 0.9
2018-Jun-15 01:31N 47°28' W 004°11'0 3.6
2018-Jun-15 01:30N 47°28' W 004°11'7 0.4
2018-Jun-14 06:30N 47°33' W 004°16'3 3.3
2018-Jun-14 05:39N 47°36' W 004°19'1 3.6
2018-Jun-14 05:17N 47°37' W 004°20'3 3.5
2018-Jun-14 04:20N 47°39' W 004°23'11 5.7
2018-Jun-14 02:24N 47°46' W 004°11'3 7.1
2018-Jun-14 02:00N 47°48' W 004°08'5 0.2
2018-Jun-13 03:33N 47°49' W 004°00'1 8.1
2018-Jun-13 03:29N 47°50' W 003°60'3 1.8
2018-Jun-13 01:59N 47°50' W 003°56'4 8.2
2018-Jun-13 01:29N 47°46' W 003°55'15 7.0
2018-Jun-12 23:23N 47°32' W 004°01'3 5.7
2018-Jun-12 22:54N 47°30' W 004°04'17 0.9
2018-Jun-12 04:08N 47°40' W 004°24'0 3.5
2018-Jun-12 04:01N 47°40' W 004°24'11 7.6
2018-Jun-12 02:33N 47°44' W 004°08'1 8.2
2018-Jun-12 02:24N 47°44' W 004°06'4 8.0
2018-Jun-12 01:52N 47°46' W 004°01'4 8.4
2018-Jun-12 01:20N 47°50' W 003°57'13 4.0
2018-Jun-11 22:05N 47°37' W 003°52'3 7.2
2018-Jun-11 21:38N 47°34' W 003°52'1 7.3
2018-Jun-11 21:30N 47°33' W 003°52'2 3.2
2018-Jun-11 21:00N 47°32' W 003°51'2 3.2
2018-Jun-11 20:30N 47°32' W 003°54'2 3.2
2018-Jun-11 20:00N 47°33' W 003°56'6 1.1
2018-Jun-11 14:13N 47°27' W 004°01'1 3.5
2018-Jun-11 13:58N 47°28' W 004°01'7 1.5
2018-Jun-11 09:03N 47°29' W 003°51'0 3.3
2018-Jun-11 08:57N 47°29' W 003°50'1 3.0
2018-Jun-11 08:30N 47°30' W 003°50'2 3.8
2018-Jun-11 07:58N 47°32' W 003°53'1 2.3
2018-Jun-11 07:29N 47°32' W 003°54'9 2.9
2018-Jun-11 04:33N 47°37' W 004°05'14 2.3
2018-Jun-10 22:33N 47°50' W 004°11'0 0.0
2018-Jun-10 06:33N 47°50' W 004°11'0 0.0
2018-Jun-10 05:33N 47°50' W 004°11'0 0.0
2018-Jun-10 02:33N 47°50' W 004°11'0 0.0
2018-Jun-09 23:33N 47°50' W 004°11'0 0.0
2018-Jun-09 20:33N 47°50' W 004°11'  

Dump ship's entire track history